< Typhoon 202121 2021 Season Typhoon 202201 >
Typhoon 202122 (RAI)
General InformationDetailed Track InformationTrack Information on Google MapsForecast History on Google MapsAccess Analytics MapList of All Images || NewsDisaster Info.WeblogTrackbackTyphoon FrontTwiphoonTyphoon Now!Typhoon ImaginationJMA Disaster Info. XMLResourceGoogle EarthGE AnimationAtom FeedGeoJSON
Detalied Best Track Wind (Time Zone = UTC)
Year Month Day Hour Lat. Long. Wind (kt) Gust (kt) Direc. of Major Storm Axis Radius of Major Storm Axis (nm) Radius of Minor Storm Axis (nm) Direc. of Major Gale Axis Radius of Major Gale Axis (nm) Radius of Minor Gale Axis (nm) Image
2021 12 11 18 5.8 144.8 0 0 - - - - - - Image
2021 12 12 00 5.8 144.4 0 0 - - - - - - Image
2021 12 12 06 5.8 144.0 0 0 - - - - - - Image
2021 12 12 12 5.8 143.5 0 0 - - - - - - Image
2021 12 12 18 5.8 143.0 0 0 - - - - - - Image
2021 12 13 00 5.8 142.0 0 0 - - - - - - Image
2021 12 13 06 6.0 141.0 35 0 - - - N 190 90 Image
2021 12 13 12 6.4 139.7 40 0 - - - N 190 90 Image
2021 12 13 18 6.8 138.4 45 0 - - - N 190 90 Image
2021 12 14 00 7.2 137.1 50 0 - - - N 190 90 Image
2021 12 14 06 7.8 135.8 55 0 symmetric 30 30 N 190 90 Image
2021 12 14 12 8.4 134.5 60 0 symmetric 40 40 N 190 90 Image
2021 12 14 18 8.6 133.4 70 0 symmetric 50 50 N 190 90 Image
2021 12 15 00 8.7 132.3 75 0 symmetric 60 60 NE 240 150 Image
2021 12 15 06 8.9 131.2 80 0 symmetric 75 75 NE 240 150 Image
2021 12 15 12 9.1 130.1 80 0 symmetric 75 75 NE 240 150 Image
2021 12 15 18 9.4 128.9 85 0 symmetric 80 80 NE 240 150 Image
2021 12 16 00 9.7 127.6 100 0 symmetric 90 90 NE 240 150 Image
2021 12 16 06 9.9 126.0 105 0 symmetric 90 90 NE 240 150 Image
2021 12 16 12 10.0 124.3 95 0 symmetric 90 90 NE 240 150 Image
2021 12 16 18 10.0 122.6 85 0 symmetric 80 80 NE 240 150 Image
2021 12 17 00 10.0 121.2 80 0 symmetric 75 75 NE 240 150 Image
2021 12 17 06 10.3 119.9 80 0 symmetric 75 75 NE 240 150 Image
2021 12 17 12 10.4 118.6 80 0 symmetric 75 75 N 300 150 Image
2021 12 17 18 10.6 117.4 80 0 symmetric 75 75 N 300 150 Image
2021 12 18 00 10.8 116.0 85 0 symmetric 80 80 N 300 150 Image
2021 12 18 06 11.2 114.6 95 0 symmetric 90 90 N 300 150 Image
2021 12 18 12 11.8 113.4 100 0 symmetric 90 90 N 300 150 Image
2021 12 18 18 12.5 112.2 105 0 symmetric 90 90 N 300 150 Image
2021 12 19 00 13.1 111.4 105 0 symmetric 90 90 N 300 150 Image
2021 12 19 06 13.9 110.6 100 0 symmetric 90 90 N 240 150 Image
2021 12 19 12 14.9 110.6 90 0 symmetric 90 90 N 240 150 Image
2021 12 19 18 16.1 110.7 80 0 symmetric 75 75 N 240 150 Image
2021 12 20 00 17.2 110.9 70 0 symmetric 50 50 N 240 150 Image
2021 12 20 06 18.1 111.4 55 0 symmetric 30 30 N 240 150 Image
2021 12 20 12 19.0 111.9 35 0 - - - N 240 150 Image
2021 12 20 18 19.9 112.8 0 0 - - - - - - Image
2021 12 21 00 20.8 114.0 0 0 - - - - - - Image
2021 12 21 06 21.3 115.3 0 0 - - - - - - Image
Japan Meteorological Agency Best Track Data | Correction Date : 2022-02-04
< Typhoon 202121 2021 Season Typhoon 202201 >

Help